createdAt,value
2018-11-01T00:00:18.094Z,12.29
2018-11-01T00:01:18.073Z,12.32
2018-11-01T00:02:18.047Z,12.32
2018-11-01T00:03:18.021Z,12.39
2018-11-01T00:04:17.989Z,12.42
2018-11-01T00:05:17.962Z,12.36
2018-11-01T00:06:17.942Z,12.39
2018-11-01T00:07:17.915Z,12.35
2018-11-01T00:08:17.881Z,12.35
2018-11-01T00:09:17.863Z,12.39
2018-11-01T00:10:17.833Z,12.35
2018-11-01T00:11:17.802Z,12.40
2018-11-01T00:12:17.779Z,12.40
2018-11-01T00:13:17.749Z,12.46
2018-11-01T00:14:17.728Z,12.37
2018-11-01T00:15:17.698Z,12.39
2018-11-01T00:16:17.673Z,12.42
2018-11-01T00:17:17.641Z,12.45
2018-11-01T00:18:17.620Z,12.37
2018-11-01T00:19:17.595Z,12.42
2018-11-01T00:20:17.560Z,12.43
2018-11-01T00:21:17.536Z,12.32
2018-11-01T00:22:17.512Z,12.31
2018-11-01T00:23:17.484Z,12.37
2018-11-01T00:24:17.460Z,12.32
2018-11-01T00:25:17.432Z,12.40
2018-11-01T00:26:17.408Z,12.27
2018-11-01T00:27:17.382Z,12.31
2018-11-01T00:28:17.346Z,12.25
2018-11-01T00:29:17.320Z,12.32
2018-11-01T00:30:17.296Z,12.32
2018-11-01T00:31:17.272Z,12.28
2018-11-01T00:32:17.245Z,12.28
2018-11-01T00:33:17.214Z,12.25
2018-11-01T00:34:17.195Z,12.37
2018-11-01T00:35:17.160Z,12.24
2018-11-01T00:36:17.139Z,12.36
2018-11-01T00:37:17.104Z,12.35
2018-11-01T00:38:17.084Z,12.29
2018-11-01T00:39:17.053Z,12.22
2018-11-01T00:40:17.023Z,12.22
2018-11-01T00:41:17.005Z,12.17
2018-11-01T00:42:16.978Z,12.20
2018-11-01T00:43:16.947Z,12.22
2018-11-01T00:44:16.924Z,12.21
2018-11-01T00:45:16.892Z,12.15
2018-11-01T00:46:16.875Z,12.25
2018-11-01T00:47:16.842Z,12.13
2018-11-01T00:48:16.819Z,12.18
2018-11-01T00:49:16.787Z,12.12
2018-11-01T00:50:16.765Z,12.12
2018-11-01T00:51:16.739Z,12.10
2018-11-01T00:52:16.705Z,12.17
2018-11-01T00:53:16.677Z,12.10
2018-11-01T00:54:16.698Z,12.15
2018-11-01T00:55:16.627Z,12.10
2018-11-01T00:56:16.601Z,12.13
2018-11-01T00:57:16.577Z,12.06
2018-11-01T00:58:16.554Z,12.07
2018-11-01T00:59:16.518Z,12.09
2018-11-01T01:00:16.495Z,12.02
2018-11-01T01:01:16.463Z,12.03
2018-11-01T01:02:16.439Z,12.06
2018-11-01T01:03:16.410Z,12.09
2018-11-01T01:04:16.387Z,12.04
2018-11-01T01:05:16.364Z,12.00
2018-11-01T01:06:16.328Z,12.04
2018-11-01T01:07:16.303Z,12.04
2018-11-01T01:08:16.282Z,12.00
2018-11-01T01:09:16.253Z,12.04
2018-11-01T01:10:16.230Z,12.09
2018-11-01T01:11:16.202Z,12.06
2018-11-01T01:12:16.166Z,12.04
2018-11-01T01:13:16.148Z,12.06
2018-11-01T01:14:16.119Z,12.04
2018-11-01T01:15:16.093Z,12.04
2018-11-01T01:16:16.062Z,12.15
2018-11-01T01:17:16.031Z,12.17
2018-11-01T01:18:16.013Z,12.07
2018-11-01T01:19:15.979Z,12.07
2018-11-01T01:20:15.961Z,12.10
2018-11-01T01:21:15.925Z,12.13
2018-11-01T01:22:15.907Z,12.07
2018-11-01T01:23:15.876Z,12.09
2018-11-01T01:24:15.849Z,12.00
2018-11-01T01:25:15.820Z,12.10
2018-11-01T01:26:15.797Z,12.07
2018-11-01T01:27:15.772Z,12.13
2018-11-01T01:28:15.747Z,12.10
2018-11-01T01:29:15.717Z,12.10
2018-11-01T01:30:15.687Z,12.15
2018-11-01T01:31:15.667Z,12.18
2018-11-01T01:32:15.629Z,12.10
2018-11-01T01:33:15.615Z,12.12
2018-11-01T01:34:15.582Z,12.09
2018-11-01T01:35:15.561Z,12.06
2018-11-01T01:36:15.524Z,12.12
2018-11-01T01:37:15.513Z,12.18
2018-11-01T01:38:15.478Z,12.20
2018-11-01T01:39:15.451Z,12.07
2018-11-01T01:40:15.424Z,12.18
2018-11-01T01:41:15.397Z,12.13
2018-11-01T01:42:15.368Z,12.07
2018-11-01T01:43:15.341Z,12.10
2018-11-01T01:44:15.312Z,12.09
2018-11-01T01:45:15.290Z,12.12
2018-11-01T01:46:15.256Z,12.06
2018-11-01T01:47:15.232Z,12.04
2018-11-01T01:48:15.210Z,12.15
2018-11-01T01:49:15.180Z,11.99
2018-11-01T01:50:15.185Z,12.07
2018-11-01T01:51:15.127Z,12.06
2018-11-01T01:52:15.097Z,12.03
2018-11-01T01:53:15.075Z,11.95
2018-11-01T01:54:15.049Z,11.95
2018-11-01T01:55:15.047Z,11.97
2018-11-01T01:56:14.989Z,12.04
2018-11-01T01:57:14.964Z,11.94
2018-11-01T01:58:14.942Z,11.88
2018-11-01T01:59:14.911Z,11.97
2018-11-01T02:00:14.886Z,11.99
2018-11-01T02:01:14.856Z,11.97
2018-11-01T02:02:14.835Z,11.97
2018-11-01T02:03:14.808Z,11.94
2018-11-01T02:04:14.782Z,11.91
2018-11-01T02:05:14.745Z,11.95
2018-11-01T02:06:14.728Z,11.81
2018-11-01T02:07:14.703Z,11.94
2018-11-01T02:08:14.670Z,11.91
2018-11-01T02:09:14.644Z,11.99
2018-11-01T02:10:14.616Z,11.99
2018-11-01T02:11:14.595Z,11.95
2018-11-01T02:12:14.562Z,11.95
2018-11-01T02:13:14.540Z,11.87
2018-11-01T02:14:14.504Z,11.91
2018-11-01T02:15:14.482Z,11.97
2018-11-01T02:16:14.459Z,11.84
2018-11-01T02:17:14.430Z,11.91
2018-11-01T02:18:14.402Z,11.97
2018-11-01T02:19:14.379Z,11.81
2018-11-01T02:20:14.349Z,11.78
2018-11-01T02:21:14.326Z,11.90
2018-11-01T02:22:14.292Z,11.80
2018-11-01T02:23:14.273Z,11.86
2018-11-01T02:24:14.240Z,11.80
2018-11-01T02:25:14.218Z,11.77
2018-11-01T02:26:14.181Z,11.73
2018-11-01T02:27:14.165Z,11.66
2018-11-01T02:28:14.132Z,11.65
2018-11-01T02:29:14.116Z,11.66
2018-11-01T02:30:14.084Z,11.60
2018-11-01T02:31:14.060Z,11.59
2018-11-01T02:32:14.023Z,11.55
2018-11-01T02:33:13.997Z,11.50
2018-11-01T02:34:13.972Z,11.52
2018-11-01T02:35:13.950Z,11.55
2018-11-01T02:36:13.920Z,11.43
2018-11-01T02:37:13.890Z,11.44
2018-11-01T02:38:13.908Z,11.47
2018-11-01T02:39:13.837Z,11.47
2018-11-01T02:40:13.811Z,11.50
2018-11-01T02:41:13.780Z,11.43
2018-11-01T02:42:13.763Z,11.47
2018-11-01T02:43:13.726Z,11.35
2018-11-01T02:44:13.710Z,11.33
2018-11-01T02:45:13.682Z,11.30
2018-11-01T02:46:13.646Z,11.27
2018-11-01T02:47:13.619Z,11.25
2018-11-01T02:48:13.596Z,11.25
2018-11-01T02:49:13.573Z,11.19
2018-11-01T02:50:13.540Z,11.19
2018-11-01T02:51:13.516Z,11.17
2018-11-01T02:52:13.492Z,11.22
2018-11-01T02:53:13.459Z,11.15
2018-11-01T02:54:13.438Z,11.22
2018-11-01T02:55:13.411Z,11.25
2018-11-01T02:56:13.378Z,11.19
2018-11-01T02:57:13.352Z,11.18
2018-11-01T02:58:13.350Z,11.17
2018-11-01T02:59:13.325Z,11.17
2018-11-01T03:00:13.268Z,11.18
2018-11-01T03:01:13.245Z,11.15
2018-11-01T03:02:13.218Z,11.15
2018-11-01T03:03:13.186Z,11.12
2018-11-01T03:04:13.169Z,11.19
2018-11-01T03:05:13.147Z,11.18
2018-11-01T03:06:13.115Z,11.14
2018-11-01T03:07:13.088Z,11.11
2018-11-01T03:08:13.057Z,11.15
2018-11-01T03:09:13.032Z,11.17
2018-11-01T03:10:12.999Z,11.23
2018-11-01T03:11:12.975Z,11.14
2018-11-01T03:12:12.948Z,11.23
2018-11-01T03:13:12.919Z,11.02
2018-11-01T03:14:12.902Z,11.05
2018-11-01T03:15:12.864Z,11.04
2018-11-01T03:16:12.839Z,11.02
2018-11-01T03:17:12.863Z,11.00
2018-11-01T03:18:12.786Z,11.00
2018-11-01T03:19:12.758Z,10.97
2018-11-01T03:20:12.733Z,10.90
2018-11-01T03:21:12.707Z,10.97
2018-11-01T03:22:12.680Z,10.96
2018-11-01T03:23:12.652Z,10.94
2018-11-01T03:24:12.622Z,10.87
2018-11-01T03:25:12.595Z,10.90
2018-11-01T03:26:12.624Z,10.84
2018-11-01T03:27:12.540Z,10.87
2018-11-01T03:28:12.519Z,10.93
2018-11-01T03:29:12.492Z,10.90
2018-11-01T03:30:12.459Z,10.86
2018-11-01T03:31:12.433Z,10.94
2018-11-01T03:32:12.403Z,10.93
2018-11-01T03:33:12.383Z,11.00
2018-11-01T03:34:12.353Z,10.97
2018-11-01T03:35:12.371Z,10.96
2018-11-01T03:36:12.304Z,10.94
2018-11-01T03:37:12.277Z,10.87
2018-11-01T03:38:12.272Z,10.89
2018-11-01T03:39:12.221Z,10.79
2018-11-01T03:40:12.193Z,10.81
2018-11-01T03:41:12.167Z,10.76
2018-11-01T03:42:12.138Z,10.76
2018-11-01T03:43:12.106Z,10.76
2018-11-01T03:44:12.083Z,10.68
2018-11-01T03:45:12.055Z,10.68
2018-11-01T03:46:12.025Z,10.61
2018-11-01T03:47:12.007Z,10.60
2018-11-01T03:48:11.982Z,10.60
2018-11-01T03:49:11.944Z,10.56
2018-11-01T03:50:11.924Z,10.60
2018-11-01T03:51:11.894Z,10.61
2018-11-01T03:52:11.879Z,10.63
2018-11-01T03:53:11.838Z,10.64
2018-11-01T03:54:11.814Z,10.54
2018-11-01T03:55:11.787Z,10.54
2018-11-01T03:56:11.765Z,10.54
2018-11-01T03:57:11.728Z,10.59
2018-11-01T03:58:11.701Z,10.57
2018-11-01T03:59:11.682Z,10.48
2018-11-01T04:00:11.739Z,10.49
2018-11-01T04:01:11.620Z,10.54
2018-11-01T04:02:11.593Z,10.53
2018-11-01T04:03:11.574Z,10.48
2018-11-01T04:04:11.544Z,10.53
2018-11-01T04:05:11.515Z,10.49
2018-11-01T04:06:11.482Z,10.54
2018-11-01T04:07:11.466Z,10.57
2018-11-01T04:08:11.436Z,10.53
2018-11-01T04:09:11.404Z,10.61
2018-11-01T04:10:11.691Z,10.61
2018-11-01T04:11:11.351Z,10.63
2018-11-01T04:12:11.327Z,10.68
2018-11-01T04:13:11.294Z,10.60
2018-11-01T04:14:11.270Z,10.67
2018-11-01T04:15:11.357Z,10.63
2018-11-01T04:16:11.217Z,10.72
2018-11-01T04:17:11.299Z,10.69
2018-11-01T04:18:11.163Z,10.79
2018-11-01T04:19:11.141Z,10.67
2018-11-01T04:20:11.110Z,10.72
2018-11-01T04:21:11.076Z,10.72
2018-11-01T04:22:11.059Z,10.68
2018-11-01T04:23:11.090Z,10.63
2018-11-01T04:24:11.000Z,10.60
2018-11-01T04:25:10.969Z,10.63
2018-11-01T04:26:10.945Z,10.68
2018-11-01T04:27:10.918Z,10.67
2018-11-01T04:28:10.892Z,10.68
2018-11-01T04:29:10.861Z,10.60
2018-11-01T04:30:10.830Z,10.64
2018-11-01T04:31:10.813Z,10.64
2018-11-01T04:32:10.785Z,10.59
2018-11-01T04:33:10.822Z,10.63
2018-11-01T04:34:10.733Z,10.63
2018-11-01T04:35:10.701Z,10.64
2018-11-01T04:36:10.697Z,10.68
2018-11-01T04:37:10.677Z,10.67
2018-11-01T04:38:10.618Z,10.72
2018-11-01T04:39:10.599Z,10.76
2018-11-01T04:40:10.562Z,10.78
2018-11-01T04:41:10.541Z,10.68
2018-11-01T04:42:10.511Z,10.68
2018-11-01T04:43:10.493Z,10.69
2018-11-01T04:44:10.528Z,10.69
2018-11-01T04:45:10.490Z,10.67
2018-11-01T04:46:10.453Z,10.68
2018-11-01T04:47:10.386Z,10.78
2018-11-01T04:48:10.343Z,10.71
2018-11-01T04:49:10.324Z,10.74
2018-11-01T04:50:10.295Z,10.69
2018-11-01T04:51:10.270Z,10.72
2018-11-01T04:52:10.245Z,10.67
2018-11-01T04:53:10.208Z,10.67
2018-11-01T04:54:10.182Z,10.68
2018-11-01T04:55:10.162Z,10.75
2018-11-01T04:56:10.131Z,10.63
2018-11-01T04:57:10.098Z,10.71
2018-11-01T04:58:10.080Z,10.60
2018-11-01T04:59:10.050Z,10.67
2018-11-01T05:00:10.026Z,10.67
2018-11-01T05:01:09.996Z,10.59
2018-11-01T05:02:09.968Z,10.57
2018-11-01T05:03:09.939Z,10.57
2018-11-01T05:04:09.913Z,10.49
2018-11-01T05:05:09.989Z,10.46
2018-11-01T05:06:09.857Z,10.42
2018-11-01T05:07:09.834Z,10.46
2018-11-01T05:08:09.823Z,10.56
2018-11-01T05:09:09.774Z,10.46
2018-11-01T05:10:09.754Z,10.42
2018-11-01T05:11:09.731Z,10.51
2018-11-01T05:12:09.694Z,10.49
2018-11-01T05:13:09.671Z,10.53
2018-11-01T05:14:09.643Z,10.44
2018-11-01T05:15:09.686Z,10.46
2018-11-01T05:16:09.818Z,10.38
2018-11-01T05:17:09.580Z,10.40
2018-11-01T05:18:09.536Z,10.42
2018-11-01T05:19:09.534Z,10.42
2018-11-01T05:20:09.565Z,10.41
2018-11-01T05:21:09.499Z,10.48
2018-11-01T05:22:09.431Z,10.44
2018-11-01T05:23:09.394Z,10.49
2018-11-01T05:24:09.373Z,10.54
2018-11-01T05:25:09.338Z,10.59
2018-11-01T05:26:09.318Z,10.41
2018-11-01T05:27:09.287Z,10.41
2018-11-01T05:28:09.263Z,10.51
2018-11-01T05:29:09.234Z,10.53
2018-11-01T05:30:09.203Z,10.38
2018-11-01T05:31:09.178Z,10.37
2018-11-01T05:32:09.154Z,10.41
2018-11-01T05:33:09.124Z,10.37
2018-11-01T05:34:09.106Z,10.37
2018-11-01T05:35:09.067Z,10.46
2018-11-01T05:36:09.042Z,10.35
2018-11-01T05:37:09.011Z,10.34
2018-11-01T05:38:09.049Z,10.38
2018-11-01T05:39:08.969Z,10.33
2018-11-01T05:40:08.935Z,10.34
2018-11-01T05:41:08.912Z,10.40
2018-11-01T05:42:08.898Z,10.42
2018-11-01T05:43:08.854Z,10.37
2018-11-01T05:44:08.823Z,10.26
2018-11-01T05:45:08.802Z,10.33
2018-11-01T05:46:08.775Z,10.34
2018-11-01T05:47:08.746Z,10.22
2018-11-01T05:48:08.716Z,10.30
2018-11-01T05:49:08.690Z,10.23
2018-11-01T05:50:08.660Z,10.20
2018-11-01T05:51:08.641Z,10.20
2018-11-01T05:52:08.609Z,10.07
2018-11-01T05:53:08.586Z,10.10
2018-11-01T05:54:08.558Z,10.16
2018-11-01T05:55:08.523Z,10.13
2018-11-01T05:56:08.498Z,10.09
2018-11-01T05:57:08.473Z,9.98
2018-11-01T05:58:08.455Z,10.04
2018-11-01T05:59:08.418Z,9.94
2018-11-01T06:00:08.411Z,9.97
2018-11-01T06:01:08.366Z,9.97
2018-11-01T06:02:08.333Z,9.89
2018-11-01T06:03:08.307Z,9.91
2018-11-01T06:04:08.282Z,9.91
2018-11-01T06:05:08.258Z,9.83
2018-11-01T06:06:08.234Z,9.76
2018-11-01T06:07:08.196Z,9.72
2018-11-01T06:08:08.176Z,9.68
2018-11-01T06:09:08.147Z,9.72
2018-11-01T06:10:08.123Z,9.66
2018-11-01T06:11:08.144Z,9.64
2018-11-01T06:12:08.080Z,9.58
2018-11-01T06:13:08.043Z,9.61
2018-11-01T06:14:08.010Z,9.64
2018-11-01T06:15:07.983Z,9.62
2018-11-01T06:16:07.949Z,9.59
2018-11-01T06:17:07.934Z,9.65
2018-11-01T06:18:07.902Z,9.61
2018-11-01T06:19:07.878Z,9.61
2018-11-01T06:20:07.843Z,9.58
2018-11-01T06:21:07.826Z,9.58
2018-11-01T06:22:07.797Z,9.59
2018-11-01T06:23:07.762Z,9.68
2018-11-01T06:24:07.732Z,9.65
2018-11-01T06:25:07.712Z,9.59
2018-11-01T06:26:07.682Z,9.59
2018-11-01T06:27:07.654Z,9.58
2018-11-01T06:28:07.624Z,9.59
2018-11-01T06:29:07.605Z,9.59
2018-11-01T06:30:07.577Z,9.68
2018-11-01T06:31:07.544Z,9.61
2018-11-01T06:32:07.519Z,9.62
2018-11-01T06:33:07.491Z,9.64
2018-11-01T06:34:07.468Z,9.61
2018-11-01T06:35:07.433Z,9.64
2018-11-01T06:36:07.408Z,9.66
2018-11-01T06:37:07.389Z,9.61
2018-11-01T06:38:07.354Z,9.65
2018-11-01T06:39:07.323Z,9.66
2018-11-01T06:40:07.293Z,9.62
2018-11-01T06:41:07.278Z,9.59
2018-11-01T06:42:07.249Z,9.65
2018-11-01T06:43:07.214Z,9.66
2018-11-01T06:44:07.187Z,9.64
2018-11-01T06:45:07.161Z,9.66
2018-11-01T06:46:07.131Z,9.61
2018-11-01T06:47:07.110Z,9.61
2018-11-01T06:48:07.076Z,9.64
2018-11-01T06:49:07.051Z,9.61
2018-11-01T06:50:07.024Z,9.68
2018-11-01T06:51:06.994Z,9.74
2018-11-01T06:52:06.964Z,9.66
2018-11-01T06:53:06.947Z,9.73
2018-11-01T06:54:06.917Z,9.68
2018-11-01T06:55:06.891Z,9.73
2018-11-01T06:56:06.865Z,9.73
2018-11-01T06:57:06.828Z,9.73
2018-11-01T06:58:06.829Z,9.86
2018-11-01T06:59:06.925Z,9.84
2018-11-01T07:00:06.744Z,9.80
2018-11-01T07:01:06.732Z,9.97
2018-11-01T07:02:06.701Z,9.95
2018-11-01T07:03:06.663Z,9.91
2018-11-01T07:04:06.640Z,9.91
2018-11-01T07:05:06.611Z,9.97
2018-11-01T07:06:06.585Z,10.05
2018-11-01T07:07:06.561Z,9.99
2018-11-01T07:08:06.531Z,9.99
2018-11-01T07:09:06.506Z,10.02
2018-11-01T07:10:06.477Z,10.02
2018-11-01T07:11:06.449Z,9.97
2018-11-01T07:12:06.423Z,10.02
2018-11-01T07:13:06.393Z,9.97
2018-11-01T07:14:06.365Z,10.05
2018-11-01T07:15:06.362Z,10.05
2018-11-01T07:16:06.314Z,9.98
2018-11-01T07:17:06.337Z,10.07
2018-11-01T07:18:06.258Z,10.10
2018-11-01T07:19:06.239Z,10.04
2018-11-01T07:20:06.204Z,10.15
2018-11-01T07:21:06.180Z,10.13
2018-11-01T07:22:06.158Z,10.12
2018-11-01T07:23:06.128Z,10.23
2018-11-01T07:24:06.090Z,10.23
2018-11-01T07:25:06.077Z,10.23
2018-11-01T07:26:06.151Z,10.35
2018-11-01T07:27:06.010Z,10.35
2018-11-01T07:28:05.984Z,10.34
2018-11-01T07:29:05.961Z,10.34
2018-11-01T07:30:05.930Z,10.38
2018-11-01T07:31:05.912Z,10.44
2018-11-01T07:32:05.879Z,10.54
2018-11-01T07:33:05.867Z,10.49
2018-11-01T07:34:05.823Z,10.46
2018-11-01T07:35:05.796Z,10.56
2018-11-01T07:36:05.771Z,10.60
2018-11-01T07:37:05.738Z,10.64
2018-11-01T07:38:05.718Z,10.69
2018-11-01T07:39:05.683Z,10.81
2018-11-01T07:40:05.816Z,10.78
2018-11-01T07:41:05.637Z,10.89
2018-11-01T07:42:05.611Z,10.90
2018-11-01T07:43:05.576Z,10.96
2018-11-01T07:44:05.546Z,10.90
2018-11-01T07:45:05.527Z,10.97
2018-11-01T07:46:05.500Z,11.08
2018-11-01T07:47:05.465Z,11.12
2018-11-01T07:48:05.440Z,11.11
2018-11-01T07:49:05.419Z,11.25
2018-11-01T07:50:05.383Z,11.11
2018-11-01T07:51:05.365Z,11.18
2018-11-01T07:52:05.335Z,11.23
2018-11-01T07:53:05.316Z,11.15
2018-11-01T07:54:05.281Z,11.25
2018-11-01T07:55:05.256Z,11.23
2018-11-01T07:56:05.226Z,11.25
2018-11-01T07:57:05.206Z,11.35
2018-11-01T07:58:05.172Z,11.41
2018-11-01T07:59:05.147Z,11.45
2018-11-01T08:00:05.123Z,11.50
2018-11-01T08:01:05.090Z,11.50
2018-11-01T08:02:05.065Z,11.51
2018-11-01T08:03:05.036Z,11.48
2018-11-01T08:04:05.014Z,11.52
2018-11-01T08:05:04.979Z,11.62
2018-11-01T08:06:05.071Z,11.63
2018-11-01T08:07:04.977Z,11.63
2018-11-01T08:08:04.908Z,11.65
2018-11-01T08:09:04.873Z,11.66
2018-11-01T08:10:04.847Z,11.66
2018-11-01T08:11:04.823Z,11.69
2018-11-01T08:12:04.793Z,11.72
2018-11-01T08:13:04.784Z,11.75
2018-11-01T08:14:04.745Z,11.73
2018-11-01T08:15:04.712Z,11.81
2018-11-01T08:16:04.691Z,11.83
2018-11-01T08:17:04.663Z,11.88
2018-11-01T08:18:04.636Z,11.94
2018-11-01T08:19:04.602Z,11.94
2018-11-01T08:20:04.853Z,11.97
2018-11-01T08:21:04.683Z,11.99
2018-11-01T08:22:04.535Z,12.03
2018-11-01T08:23:04.502Z,12.09
2018-11-01T08:24:04.473Z,11.99
2018-11-01T08:25:04.446Z,12.02
2018-11-01T08:26:04.414Z,12.06
2018-11-01T08:27:04.395Z,12.12
2018-11-01T08:28:04.489Z,12.15
2018-11-01T08:29:04.343Z,12.10
2018-11-01T08:30:04.308Z,12.12
2018-11-01T08:31:04.314Z,12.24
2018-11-01T08:32:04.258Z,12.21
2018-11-01T08:33:04.232Z,12.29
2018-11-01T08:34:04.200Z,12.37
2018-11-01T08:35:04.183Z,12.28
2018-11-01T08:36:04.153Z,12.36
2018-11-01T08:37:04.127Z,12.36
2018-11-01T08:38:04.095Z,12.39
2018-11-01T08:39:04.070Z,12.40
2018-11-01T08:40:04.047Z,12.45
2018-11-01T08:41:04.149Z,12.47
2018-11-01T08:42:03.999Z,12.46
2018-11-01T08:43:03.958Z,12.54
2018-11-01T08:44:03.933Z,12.60
2018-11-01T08:45:03.910Z,12.55
2018-11-01T08:46:03.886Z,12.58
2018-11-01T08:47:03.856Z,12.65
2018-11-01T08:48:03.828Z,12.62
2018-11-01T08:49:03.806Z,12.76
2018-11-01T08:50:03.808Z,12.72
2018-11-01T08:51:03.748Z,12.85
2018-11-01T08:52:03.720Z,12.86
2018-11-01T08:53:03.696Z,12.80
2018-11-01T08:54:03.673Z,12.85
2018-11-01T08:55:03.638Z,12.90
2018-11-01T08:56:03.642Z,12.93
2018-11-01T08:57:03.593Z,12.98
2018-11-01T08:58:03.563Z,12.98
2018-11-01T08:59:03.536Z,13.03
2018-11-01T09:00:03.505Z,13.05
2018-11-01T09:01:03.486Z,13.00
2018-11-01T09:02:03.462Z,13.16
2018-11-01T09:03:03.426Z,13.08
2018-11-01T09:04:03.436Z,13.09
2018-11-01T09:05:03.380Z,13.08
2018-11-01T09:06:03.349Z,13.05
2018-11-01T09:07:03.323Z,13.03
2018-11-01T09:08:03.321Z,13.13
2018-11-01T09:09:03.279Z,13.22
2018-11-01T09:10:03.248Z,13.19
2018-11-01T09:11:03.254Z,13.33
2018-11-01T09:12:03.189Z,13.30
2018-11-01T09:13:03.198Z,13.38
2018-11-01T09:14:03.142Z,13.31
2018-11-01T09:15:03.106Z,13.47
2018-11-01T09:16:03.091Z,13.44
2018-11-01T09:17:03.079Z,13.41
2018-11-01T09:18:03.033Z,13.50
2018-11-01T09:19:03.056Z,13.54
2018-11-01T09:20:02.979Z,13.59
2018-11-01T09:21:02.951Z,13.74
2018-11-01T09:22:02.936Z,13.65
2018-11-01T09:23:02.908Z,13.70
2018-11-01T09:24:02.880Z,13.79
2018-11-01T09:25:02.850Z,13.71
2018-11-01T09:26:02.822Z,13.72
2018-11-01T09:27:03.008Z,13.79
2018-11-01T09:28:02.768Z,13.77
2018-11-01T09:29:02.740Z,13.81
2018-11-01T09:30:02.712Z,13.78
2018-11-01T09:31:02.694Z,13.75
2018-11-01T09:32:02.657Z,13.85
2018-11-01T09:33:02.643Z,13.81
2018-11-01T09:34:02.612Z,13.87
2018-11-01T09:35:02.613Z,13.93
2018-11-01T09:36:02.556Z,13.92
2018-11-01T09:37:02.532Z,13.89
2018-11-01T09:38:02.508Z,13.90
2018-11-01T09:39:02.480Z,13.93
2018-11-01T09:40:02.448Z,13.93
2018-11-01T09:41:02.432Z,13.92
2018-11-01T09:42:02.404Z,13.99
2018-11-01T09:43:02.375Z,13.99
2018-11-01T09:44:02.346Z,14.04
2018-11-01T09:45:02.324Z,14.07
2018-11-01T09:46:02.399Z,14.07
2018-11-01T09:47:02.718Z,14.10
2018-11-01T09:48:02.242Z,14.17
2018-11-01T09:49:02.221Z,14.10
2018-11-01T09:50:02.329Z,14.03
2018-11-01T09:51:02.161Z,14.11
2018-11-01T09:52:02.131Z,14.10
2018-11-01T09:53:02.114Z,13.96
2018-11-01T09:54:02.087Z,13.97
2018-11-01T09:55:02.062Z,14.04
2018-11-01T09:56:02.158Z,13.95
2018-11-01T09:57:02.006Z,13.93
2018-11-01T09:58:01.977Z,14.00
2018-11-01T09:59:01.955Z,13.95
2018-11-01T10:00:01.930Z,13.89
2018-11-01T10:01:01.942Z,13.92
2018-11-01T10:02:01.875Z,13.92
2018-11-01T10:03:01.847Z,13.83
2018-11-01T10:04:01.817Z,13.90
2018-11-01T10:05:01.846Z,13.93
2018-11-01T10:06:01.786Z,13.81
2018-11-01T10:07:01.806Z,13.81
2018-11-01T10:08:01.716Z,13.81
2018-11-01T10:09:01.718Z,13.90
2018-11-01T10:10:01.669Z,13.99
2018-11-01T10:11:01.645Z,13.95
2018-11-01T10:12:01.614Z,14.12
2018-11-01T10:13:01.588Z,14.15
2018-11-01T10:14:01.557Z,14.25
2018-11-01T10:15:01.625Z,14.22
2018-11-01T10:16:01.708Z,14.25
2018-11-01T10:17:01.695Z,14.30
2018-11-01T10:18:01.853Z,14.25
2018-11-01T10:19:01.447Z,14.29
2018-11-01T10:20:01.412Z,14.32
2018-11-01T10:21:01.371Z,14.41
2018-11-01T10:22:01.518Z,14.37
2018-11-01T10:23:01.381Z,14.50
2018-11-01T10:24:01.296Z,14.51
2018-11-01T10:25:01.270Z,14.58
2018-11-01T10:26:01.244Z,14.48
2018-11-01T10:27:01.216Z,14.55
2018-11-01T10:28:01.205Z,14.59
2018-11-01T10:29:01.168Z,14.55
2018-11-01T10:30:01.145Z,14.63
2018-11-01T10:31:01.114Z,14.59
2018-11-01T10:32:01.084Z,14.72
2018-11-01T10:33:01.061Z,14.65
2018-11-01T10:34:01.143Z,14.69
2018-11-01T10:35:01.003Z,14.59
2018-11-01T10:36:00.979Z,14.68
2018-11-01T10:37:00.960Z,14.60
2018-11-01T10:38:00.927Z,14.66
2018-11-01T10:39:00.911Z,14.58
2018-11-01T10:40:00.924Z,14.72
2018-11-01T10:41:00.942Z,14.70
2018-11-01T10:42:00.833Z,14.73
2018-11-01T10:43:00.827Z,14.70
2018-11-01T10:44:00.792Z,14.70
2018-11-01T10:45:00.760Z,14.82
2018-11-01T10:46:00.721Z,14.79
2018-11-01T10:47:00.697Z,14.79
2018-11-01T10:48:00.669Z,14.81
2018-11-01T10:49:00.639Z,14.84
2018-11-01T10:50:00.613Z,14.81
2018-11-01T10:51:00.592Z,14.88
2018-11-01T10:52:00.560Z,14.84
2018-11-01T10:53:00.542Z,14.78
2018-11-01T10:54:00.557Z,14.78
2018-11-01T10:55:00.481Z,14.79
2018-11-01T10:56:00.470Z,14.89
2018-11-01T10:57:00.428Z,14.85
2018-11-01T10:58:00.403Z,14.96
2018-11-01T10:59:00.385Z,14.88
2018-11-01T11:00:00.432Z,14.96
2018-11-01T11:01:00.442Z,14.99
2018-11-01T11:02:00.300Z,14.91
2018-11-01T11:03:00.278Z,14.85
2018-11-01T11:04:00.249Z,14.88
2018-11-01T11:05:00.339Z,14.85
2018-11-01T11:06:00.203Z,14.73
2018-11-01T11:07:00.168Z,14.69
2018-11-01T11:08:00.144Z,14.66
2018-11-01T11:09:00.120Z,14.68
2018-11-01T11:10:00.095Z,14.79
2018-11-01T11:11:00.067Z,14.78
2018-11-01T11:12:00.036Z,14.77
2018-11-01T11:13:00.019Z,14.77
2018-11-01T11:13:59.987Z,14.78
2018-11-01T11:14:59.966Z,14.78
2018-11-01T11:15:59.945Z,14.77
2018-11-01T11:16:59.928Z,14.81
2018-11-01T11:17:59.881Z,14.85
2018-11-01T11:18:59.864Z,14.86
2018-11-01T11:19:59.935Z,14.84
2018-11-01T11:21:00.126Z,14.96
2018-11-01T11:21:59.783Z,14.99
2018-11-01T11:22:59.756Z,14.86
2018-11-01T11:23:59.725Z,14.82
2018-11-01T11:24:59.708Z,14.88
2018-11-01T11:25:59.681Z,14.78
2018-11-01T11:26:59.647Z,14.85
2018-11-01T11:27:59.623Z,14.86
2018-11-01T11:28:59.601Z,14.82
2018-11-01T11:29:59.610Z,14.77
2018-11-01T11:30:59.545Z,14.84
2018-11-01T11:31:59.516Z,14.79
2018-11-01T11:32:59.497Z,14.84
2018-11-01T11:33:59.473Z,14.78
2018-11-01T11:34:59.442Z,14.79
2018-11-01T11:35:59.530Z,14.77
2018-11-01T11:36:59.390Z,14.79
2018-11-01T11:37:59.372Z,14.82
2018-11-01T11:38:59.344Z,14.82
2018-11-01T11:39:59.311Z,14.86
2018-11-01T11:40:59.288Z,14.86
2018-11-01T11:41:59.255Z,14.78
2018-11-01T11:42:59.244Z,14.88
2018-11-01T11:43:59.211Z,14.79
2018-11-01T11:44:59.181Z,14.84
2018-11-01T11:45:59.154Z,14.70
2018-11-01T11:46:59.131Z,14.68
2018-11-01T11:47:59.102Z,14.69
2018-11-01T11:48:59.081Z,14.66
2018-11-01T11:49:59.050Z,14.69
2018-11-01T11:50:59.023Z,14.79
2018-11-01T11:51:58.996Z,14.82
2018-11-01T11:52:58.981Z,14.81
2018-11-01T11:53:58.945Z,14.78
2018-11-01T11:54:58.927Z,14.84
2018-11-01T11:55:58.889Z,14.84
2018-11-01T11:56:58.909Z,14.81
2018-11-01T11:57:58.853Z,14.79
2018-11-01T11:58:58.815Z,14.79
2018-11-01T11:59:58.796Z,14.81
2018-11-01T12:00:58.767Z,14.77
2018-11-01T12:01:58.744Z,14.72
2018-11-01T12:02:58.713Z,14.82
2018-11-01T12:03:58.681Z,14.82
2018-11-01T12:04:58.666Z,14.79
2018-11-01T12:05:58.697Z,14.86
2018-11-01T12:06:58.607Z,14.84
2018-11-01T12:07:58.584Z,14.84
2018-11-01T12:08:58.556Z,14.81
2018-11-01T12:09:58.581Z,14.72
2018-11-01T12:10:58.501Z,14.77
2018-11-01T12:11:58.475Z,14.82
2018-11-01T12:12:58.452Z,14.91
2018-11-01T12:13:58.444Z,14.86
2018-11-01T12:14:58.400Z,14.79
2018-11-01T12:15:58.371Z,14.77
2018-11-01T12:16:58.354Z,14.79
2018-11-01T12:17:58.328Z,14.63
2018-11-01T12:18:58.295Z,14.70
2018-11-01T12:19:58.264Z,14.68
2018-11-01T12:20:58.249Z,14.78
2018-11-01T12:21:58.216Z,14.73
2018-11-01T12:22:58.189Z,14.65
2018-11-01T12:23:58.163Z,14.68
2018-11-01T12:24:58.142Z,14.69
2018-11-01T12:25:58.112Z,14.60
2018-11-01T12:26:58.084Z,14.55
2018-11-01T12:27:58.053Z,14.45
2018-11-01T12:28:58.089Z,14.51
2018-11-01T12:29:58.015Z,14.51
2018-11-01T12:30:57.980Z,14.44
2018-11-01T12:31:57.954Z,14.40
2018-11-01T12:32:57.932Z,14.40
2018-11-01T12:33:57.905Z,14.25
2018-11-01T12:34:57.894Z,14.20
2018-11-01T12:35:57.923Z,14.15
2018-11-01T12:36:57.832Z,14.10
2018-11-01T12:37:57.802Z,14.10
2018-11-01T12:38:57.772Z,14.07
2018-11-01T12:39:57.748Z,14.03
2018-11-01T12:40:57.722Z,14.00
2018-11-01T12:41:57.696Z,13.99
2018-11-01T12:42:57.669Z,14.00
2018-11-01T12:43:57.636Z,13.99
2018-11-01T12:44:57.614Z,13.97
2018-11-01T12:45:57.588Z,13.92
2018-11-01T12:46:57.559Z,13.90
2018-11-01T12:47:57.540Z,13.96
2018-11-01T12:48:57.512Z,13.96
2018-11-01T12:49:57.652Z,13.92
2018-11-01T12:50:57.453Z,13.96
2018-11-01T12:51:57.432Z,13.99
2018-11-01T12:52:57.406Z,13.95
2018-11-01T12:53:57.380Z,13.92
2018-11-01T12:54:57.360Z,13.97